sensor_id;sensor_type;location;lat;lon;timestamp;temperature;humidity
20057;DHT22;10189;49.546;7.906;2023-04-15T00:00:16;1.10;97.50
20057;DHT22;10189;49.546;7.906;2023-04-15T00:02:45;1.10;97.50
20057;DHT22;10189;49.546;7.906;2023-04-15T00:05:11;1.10;97.40
20057;DHT22;10189;49.546;7.906;2023-04-15T00:07:36;1.00;97.50
20057;DHT22;10189;49.546;7.906;2023-04-15T00:10:03;1.00;98.10
20057;DHT22;10189;49.546;7.906;2023-04-15T00:12:29;1.10;97.70
20057;DHT22;10189;49.546;7.906;2023-04-15T00:14:55;1.00;97.30
20057;DHT22;10189;49.546;7.906;2023-04-15T00:17:23;1.00;96.90
20057;DHT22;10189;49.546;7.906;2023-04-15T00:19:49;0.80;96.80
20057;DHT22;10189;49.546;7.906;2023-04-15T00:22:15;0.80;96.90
20057;DHT22;10189;49.546;7.906;2023-04-15T00:24:42;0.70;97.50
20057;DHT22;10189;49.546;7.906;2023-04-15T00:27:08;0.70;97.50
20057;DHT22;10189;49.546;7.906;2023-04-15T00:29:34;0.70;97.60
20057;DHT22;10189;49.546;7.906;2023-04-15T00:32:00;0.60;97.60
20057;DHT22;10189;49.546;7.906;2023-04-15T00:34:27;0.60;98.10
20057;DHT22;10189;49.546;7.906;2023-04-15T00:36:53;0.50;98.10
20057;DHT22;10189;49.546;7.906;2023-04-15T00:39:20;0.40;98.30
20057;DHT22;10189;49.546;7.906;2023-04-15T00:41:48;0.40;98.60
20057;DHT22;10189;49.546;7.906;2023-04-15T00:44:14;0.40;98.80
20057;DHT22;10189;49.546;7.906;2023-04-15T00:46:40;0.30;99.20
20057;DHT22;10189;49.546;7.906;2023-04-15T00:49:10;0.30;99.90
20057;DHT22;10189;49.546;7.906;2023-04-15T00:51:37;0.40;99.90
20057;DHT22;10189;49.546;7.906;2023-04-15T00:54:07;0.50;99.90
20057;DHT22;10189;49.546;7.906;2023-04-15T00:56:37;0.50;99.90
20057;DHT22;10189;49.546;7.906;2023-04-15T00:59:04;0.40;99.90
20057;DHT22;10189;49.546;7.906;2023-04-15T01:01:33;0.30;99.90
20057;DHT22;10189;49.546;7.906;2023-04-15T01:04:00;0.30;99.90
20057;DHT22;10189;49.546;7.906;2023-04-15T01:06:29;0.20;99.90
20057;DHT22;10189;49.546;7.906;2023-04-15T01:08:57;0.20;99.90
20057;DHT22;10189;49.546;7.906;2023-04-15T01:11:23;0.20;99.90
20057;DHT22;10189;49.546;7.906;2023-04-15T01:13:51;0.10;99.90
20057;DHT22;10189;49.546;7.906;2023-04-15T01:16:18;0.00;99.90
20057;DHT22;10189;49.546;7.906;2023-04-15T01:18:44;0.00;99.90
20057;DHT22;10189;49.546;7.906;2023-04-15T01:21:11;-0.10;99.90
20057;DHT22;10189;49.546;7.906;2023-04-15T01:23:37;-0.10;99.90
20057;DHT22;10189;49.546;7.906;2023-04-15T01:26:05;-0.10;99.90
20057;DHT22;10189;49.546;7.906;2023-04-15T01:28:33;-0.20;99.90
20057;DHT22;10189;49.546;7.906;2023-04-15T01:31:05;-0.20;99.90
20057;DHT22;10189;49.546;7.906;2023-04-15T01:33:36;-0.20;99.90
20057;DHT22;10189;49.546;7.906;2023-04-15T01:36:06;-0.20;99.90
20057;DHT22;10189;49.546;7.906;2023-04-15T01:38:33;-0.20;99.90
20057;DHT22;10189;49.546;7.906;2023-04-15T01:40:59;-0.20;99.90
20057;DHT22;10189;49.546;7.906;2023-04-15T01:43:25;-0.10;99.90
20057;DHT22;10189;49.546;7.906;2023-04-15T01:45:53;-0.10;99.90
20057;DHT22;10189;49.546;7.906;2023-04-15T01:48:19;-0.10;99.90
20057;DHT22;10189;49.546;7.906;2023-04-15T01:50:45;-0.10;99.90
20057;DHT22;10189;49.546;7.906;2023-04-15T01:53:10;-0.20;99.90
20057;DHT22;10189;49.546;7.906;2023-04-15T01:55:36;-0.20;99.90
20057;DHT22;10189;49.546;7.906;2023-04-15T01:58:02;-0.20;99.90
20057;DHT22;10189;49.546;7.906;2023-04-15T02:00:28;-0.20;99.90
20057;DHT22;10189;49.546;7.906;2023-04-15T02:02:55;-0.20;99.90
20057;DHT22;10189;49.546;7.906;2023-04-15T02:05:24;-0.30;99.90
20057;DHT22;10189;49.546;7.906;2023-04-15T02:07:50;-0.30;99.90
20057;DHT22;10189;49.546;7.906;2023-04-15T02:10:16;-0.30;99.90
20057;DHT22;10189;49.546;7.906;2023-04-15T02:12:42;-0.30;99.90
20057;DHT22;10189;49.546;7.906;2023-04-15T02:15:09;-0.40;99.90
20057;DHT22;10189;49.546;7.906;2023-04-15T02:17:36;-0.40;99.90
20057;DHT22;10189;49.546;7.906;2023-04-15T02:20:02;-0.40;99.90
20057;DHT22;10189;49.546;7.906;2023-04-15T02:22:33;-0.40;99.90
20057;DHT22;10189;49.546;7.906;2023-04-15T02:24:59;-0.50;99.90
20057;DHT22;10189;49.546;7.906;2023-04-15T02:27:25;-0.50;99.90
20057;DHT22;10189;49.546;7.906;2023-04-15T02:29:53;-0.50;99.90
20057;DHT22;10189;49.546;7.906;2023-04-15T02:32:19;-0.60;99.90
20057;DHT22;10189;49.546;7.906;2023-04-15T02:34:47;-0.60;99.90
20057;DHT22;10189;49.546;7.906;2023-04-15T02:37:13;-0.60;99.90
20057;DHT22;10189;49.546;7.906;2023-04-15T02:39:40;-0.60;99.90
20057;DHT22;10189;49.546;7.906;2023-04-15T02:42:06;-0.60;99.90
20057;DHT22;10189;49.546;7.906;2023-04-15T02:44:32;-0.60;99.90
20057;DHT22;10189;49.546;7.906;2023-04-15T02:47:02;-0.70;99.90
20057;DHT22;10189;49.546;7.906;2023-04-15T02:49:29;-0.70;99.90
20057;DHT22;10189;49.546;7.906;2023-04-15T02:51:55;-0.70;99.90
20057;DHT22;10189;49.546;7.906;2023-04-15T02:54:23;-0.70;99.90
20057;DHT22;10189;49.546;7.906;2023-04-15T02:56:49;-0.70;99.90
20057;DHT22;10189;49.546;7.906;2023-04-15T02:59:15;-0.70;99.90
20057;DHT22;10189;49.546;7.906;2023-04-15T03:01:41;-0.80;99.90
20057;DHT22;10189;49.546;7.906;2023-04-15T03:04:08;-0.80;99.90
20057;DHT22;10189;49.546;7.906;2023-04-15T03:06:34;-0.70;99.90
20057;DHT22;10189;49.546;7.906;2023-04-15T03:09:00;-0.70;99.90
20057;DHT22;10189;49.546;7.906;2023-04-15T03:11:31;-0.80;99.90
20057;DHT22;10189;49.546;7.906;2023-04-15T03:13:58;-0.80;99.90
20057;DHT22;10189;49.546;7.906;2023-04-15T03:16:29;-0.80;99.90
20057;DHT22;10189;49.546;7.906;2023-04-15T03:18:56;-0.80;99.90
20057;DHT22;10189;49.546;7.906;2023-04-15T03:21:23;-0.80;99.90
20057;DHT22;10189;49.546;7.906;2023-04-15T03:23:49;-0.80;99.90
20057;DHT22;10189;49.546;7.906;2023-04-15T03:26:28;-0.90;99.90
20057;DHT22;10189;49.546;7.906;2023-04-15T03:29:00;-0.90;99.90
20057;DHT22;10189;49.546;7.906;2023-04-15T03:31:26;-0.90;99.90
20057;DHT22;10189;49.546;7.906;2023-04-15T03:33:52;-0.90;99.90
20057;DHT22;10189;49.546;7.906;2023-04-15T03:36:17;-1.00;99.90
20057;DHT22;10189;49.546;7.906;2023-04-15T03:38:43;-1.00;99.90
20057;DHT22;10189;49.546;7.906;2023-04-15T03:41:09;-1.00;99.90
20057;DHT22;10189;49.546;7.906;2023-04-15T03:43:35;-1.00;99.90
20057;DHT22;10189;49.546;7.906;2023-04-15T03:46:01;-1.00;99.90
20057;DHT22;10189;49.546;7.906;2023-04-15T03:48:27;-1.00;99.90
20057;DHT22;10189;49.546;7.906;2023-04-15T03:50:53;-1.00;99.90
20057;DHT22;10189;49.546;7.906;2023-04-15T03:53:20;-1.10;99.90
20057;DHT22;10189;49.546;7.906;2023-04-15T03:55:46;-1.10;99.90
20057;DHT22;10189;49.546;7.906;2023-04-15T03:58:12;-1.10;99.90
20057;DHT22;10189;49.546;7.906;2023-04-15T04:00:39;-1.20;99.90
20057;DHT22;10189;49.546;7.906;2023-04-15T04:03:06;-1.20;99.90
20057;DHT22;10189;49.546;7.906;2023-04-15T04:05:32;-1.20;99.90
20057;DHT22;10189;49.546;7.906;2023-04-15T04:08:01;-1.20;99.90
20057;DHT22;10189;49.546;7.906;2023-04-15T04:10:27;-1.20;99.90
20057;DHT22;10189;49.546;7.906;2023-04-15T04:12:53;-1.20;99.90
20057;DHT22;10189;49.546;7.906;2023-04-15T04:15:19;-1.30;99.90
20057;DHT22;10189;49.546;7.906;2023-04-15T04:17:45;-1.30;99.90
20057;DHT22;10189;49.546;7.906;2023-04-15T04:20:11;-1.30;99.90
20057;DHT22;10189;49.546;7.906;2023-04-15T04:22:38;-1.30;99.90
20057;DHT22;10189;49.546;7.906;2023-04-15T04:25:05;-1.30;99.90
20057;DHT22;10189;49.546;7.906;2023-04-15T04:27:33;-1.30;99.90
20057;DHT22;10189;49.546;7.906;2023-04-15T04:29:59;-1.40;99.90
20057;DHT22;10189;49.546;7.906;2023-04-15T04:32:26;-1.40;99.90
20057;DHT22;10189;49.546;7.906;2023-04-15T04:34:52;-1.40;99.90
20057;DHT22;10189;49.546;7.906;2023-04-15T04:37:18;-1.40;99.90
20057;DHT22;10189;49.546;7.906;2023-04-15T04:39:44;-1.40;99.90
20057;DHT22;10189;49.546;7.906;2023-04-15T04:42:10;-1.40;99.90
20057;DHT22;10189;49.546;7.906;2023-04-15T04:44:35;-1.40;99.90
20057;DHT22;10189;49.546;7.906;2023-04-15T04:47:01;-1.40;99.90
20057;DHT22;10189;49.546;7.906;2023-04-15T04:49:27;-1.40;99.90
20057;DHT22;10189;49.546;7.906;2023-04-15T04:51:53;-1.40;99.90
20057;DHT22;10189;49.546;7.906;2023-04-15T04:54:19;-1.40;99.90
20057;DHT22;10189;49.546;7.906;2023-04-15T04:56:45;-1.40;99.90
20057;DHT22;10189;49.546;7.906;2023-04-15T04:59:11;-1.30;99.90
20057;DHT22;10189;49.546;7.906;2023-04-15T05:01:37;-1.40;99.90
20057;DHT22;10189;49.546;7.906;2023-04-15T05:04:03;-1.30;99.90
20057;DHT22;10189;49.546;7.906;2023-04-15T05:06:29;-1.30;99.90
20057;DHT22;10189;49.546;7.906;2023-04-15T05:08:55;-1.20;99.90
20057;DHT22;10189;49.546;7.906;2023-04-15T05:11:21;-1.10;99.90
20057;DHT22;10189;49.546;7.906;2023-04-15T05:13:47;-1.00;99.90
20057;DHT22;10189;49.546;7.906;2023-04-15T05:16:13;-0.90;99.90
20057;DHT22;10189;49.546;7.906;2023-04-15T05:18:39;-0.80;99.90
20057;DHT22;10189;49.546;7.906;2023-04-15T05:21:05;-0.60;99.90
20057;DHT22;10189;49.546;7.906;2023-04-15T05:23:31;-0.50;99.90
20057;DHT22;10189;49.546;7.906;2023-04-15T05:25:57;-0.30;99.90
20057;DHT22;10189;49.546;7.906;2023-04-15T05:28:23;-0.10;99.90
20057;DHT22;10189;49.546;7.906;2023-04-15T05:30:49;0.20;99.90
20057;DHT22;10189;49.546;7.906;2023-04-15T05:33:15;0.50;99.90
20057;DHT22;10189;49.546;7.906;2023-04-15T05:35:42;0.90;99.90
20057;DHT22;10189;49.546;7.906;2023-04-15T05:38:07;1.20;99.90
20057;DHT22;10189;49.546;7.906;2023-04-15T05:40:33;1.50;99.90
20057;DHT22;10189;49.546;7.906;2023-04-15T05:42:59;1.70;99.90
20057;DHT22;10189;49.546;7.906;2023-04-15T05:45:25;1.90;99.90
20057;DHT22;10189;49.546;7.906;2023-04-15T05:47:51;2.20;99.90
20057;DHT22;10189;49.546;7.906;2023-04-15T05:50:19;2.40;99.90
20057;DHT22;10189;49.546;7.906;2023-04-15T05:52:45;2.60;99.10
20057;DHT22;10189;49.546;7.906;2023-04-15T05:55:12;2.70;97.00
20057;DHT22;10189;49.546;7.906;2023-04-15T05:57:38;2.80;94.80
20057;DHT22;10189;49.546;7.906;2023-04-15T06:00:05;2.80;93.20
20057;DHT22;10189;49.546;7.906;2023-04-15T06:02:35;2.80;93.90
20057;DHT22;10189;49.546;7.906;2023-04-15T06:05:01;2.80;94.30
20057;DHT22;10189;49.546;7.906;2023-04-15T06:07:27;2.90;93.90
20057;DHT22;10189;49.546;7.906;2023-04-15T06:09:53;3.10;93.60
20057;DHT22;10189;49.546;7.906;2023-04-15T06:12:20;3.20;93.60
20057;DHT22;10189;49.546;7.906;2023-04-15T06:14:46;3.40;95.60
20057;DHT22;10189;49.546;7.906;2023-04-15T06:17:12;3.80;94.30
20057;DHT22;10189;49.546;7.906;2023-04-15T06:19:39;3.90;91.40
20057;DHT22;10189;49.546;7.906;2023-04-15T06:22:05;3.90;90.00
20057;DHT22;10189;49.546;7.906;2023-04-15T06:24:31;3.80;90.60
20057;DHT22;10189;49.546;7.906;2023-04-15T06:26:57;4.00;90.50
20057;DHT22;10189;49.546;7.906;2023-04-15T06:29:23;4.30;89.00
20057;DHT22;10189;49.546;7.906;2023-04-15T06:31:49;4.50;88.50
20057;DHT22;10189;49.546;7.906;2023-04-15T06:34:16;4.80;87.00
20057;DHT22;10189;49.546;7.906;2023-04-15T06:36:41;5.10;85.90
20057;DHT22;10189;49.546;7.906;2023-04-15T06:39:07;5.20;84.40
20057;DHT22;10189;49.546;7.906;2023-04-15T06:41:33;5.30;85.20
20057;DHT22;10189;49.546;7.906;2023-04-15T06:44:00;5.50;84.30
20057;DHT22;10189;49.546;7.906;2023-04-15T06:46:26;5.70;81.90
20057;DHT22;10189;49.546;7.906;2023-04-15T06:48:52;5.80;79.60
20057;DHT22;10189;49.546;7.906;2023-04-15T06:51:18;5.90;80.90
20057;DHT22;10189;49.546;7.906;2023-04-15T06:53:44;6.10;81.60
20057;DHT22;10189;49.546;7.906;2023-04-15T06:56:10;6.30;80.10
20057;DHT22;10189;49.546;7.906;2023-04-15T06:58:36;6.50;79.60
20057;DHT22;10189;49.546;7.906;2023-04-15T07:01:02;6.50;80.20
20057;DHT22;10189;49.546;7.906;2023-04-15T07:03:28;6.50;80.50
20057;DHT22;10189;49.546;7.906;2023-04-15T07:05:55;6.50;80.60
20057;DHT22;10189;49.546;7.906;2023-04-15T07:08:22;6.50;81.90
20057;DHT22;10189;49.546;7.906;2023-04-15T07:10:48;6.70;81.40
20057;DHT22;10189;49.546;7.906;2023-04-15T07:13:14;6.70;81.50
20057;DHT22;10189;49.546;7.906;2023-04-15T07:15:40;6.80;81.80
20057;DHT22;10189;49.546;7.906;2023-04-15T07:18:06;6.80;82.40
20057;DHT22;10189;49.546;7.906;2023-04-15T07:20:32;6.90;82.60
20057;DHT22;10189;49.546;7.906;2023-04-15T07:22:58;7.10;80.50
20057;DHT22;10189;49.546;7.906;2023-04-15T07:25:24;7.20;79.00
20057;DHT22;10189;49.546;7.906;2023-04-15T07:27:52;7.30;77.30
20057;DHT22;10189;49.546;7.906;2023-04-15T07:30:18;7.50;77.30
20057;DHT22;10189;49.546;7.906;2023-04-15T07:32:44;7.60;77.20
20057;DHT22;10189;49.546;7.906;2023-04-15T07:35:11;7.70;77.10
20057;DHT22;10189;49.546;7.906;2023-04-15T07:37:36;8.00;76.90
20057;DHT22;10189;49.546;7.906;2023-04-15T07:40:02;8.20;76.90
20057;DHT22;10189;49.546;7.906;2023-04-15T07:42:29;8.50;76.70
20057;DHT22;10189;49.546;7.906;2023-04-15T07:44:56;8.70;75.20
20057;DHT22;10189;49.546;7.906;2023-04-15T07:47:21;8.90;74.90
20057;DHT22;10189;49.546;7.906;2023-04-15T07:49:47;9.10;75.20
20057;DHT22;10189;49.546;7.906;2023-04-15T07:52:13;9.20;74.90
20057;DHT22;10189;49.546;7.906;2023-04-15T07:54:39;9.40;72.00
20057;DHT22;10189;49.546;7.906;2023-04-15T07:57:05;9.50;72.10
20057;DHT22;10189;49.546;7.906;2023-04-15T07:59:32;9.70;72.00
20057;DHT22;10189;49.546;7.906;2023-04-15T08:01:58;9.90;70.40
20057;DHT22;10189;49.546;7.906;2023-04-15T08:04:24;10.20;68.80
20057;DHT22;10189;49.546;7.906;2023-04-15T08:06:50;10.40;70.10
20057;DHT22;10189;49.546;7.906;2023-04-15T08:09:17;10.70;69.30
20057;DHT22;10189;49.546;7.906;2023-04-15T08:11:42;10.90;68.90
20057;DHT22;10189;49.546;7.906;2023-04-15T08:14:08;11.10;69.30
20057;DHT22;10189;49.546;7.906;2023-04-15T08:16:35;11.40;66.80
20057;DHT22;10189;49.546;7.906;2023-04-15T08:19:01;11.40;64.80
20057;DHT22;10189;49.546;7.906;2023-04-15T08:21:27;11.30;67.10
20057;DHT22;10189;49.546;7.906;2023-04-15T08:23:55;11.50;65.70
20057;DHT22;10189;49.546;7.906;2023-04-15T08:26:21;11.90;64.60
20057;DHT22;10189;49.546;7.906;2023-04-15T08:28:48;12.10;60.60
20057;DHT22;10189;49.546;7.906;2023-04-15T08:31:15;12.40;61.60
20057;DHT22;10189;49.546;7.906;2023-04-15T08:33:42;12.60;57.80
20057;DHT22;10189;49.546;7.906;2023-04-15T08:36:08;12.50;58.70
20057;DHT22;10189;49.546;7.906;2023-04-15T08:38:35;12.90;58.30
20057;DHT22;10189;49.546;7.906;2023-04-15T08:41:16;13.20;52.50
20057;DHT22;10189;49.546;7.906;2023-04-15T08:43:57;13.50;50.50
20057;DHT22;10189;49.546;7.906;2023-04-15T08:46:30;13.60;51.10
20057;DHT22;10189;49.546;7.906;2023-04-15T08:48:58;13.80;51.00
20057;DHT22;10189;49.546;7.906;2023-04-15T08:51:24;13.60;49.80
20057;DHT22;10189;49.546;7.906;2023-04-15T08:53:52;13.80;49.20
20057;DHT22;10189;49.546;7.906;2023-04-15T08:56:22;13.50;50.20
20057;DHT22;10189;49.546;7.906;2023-04-15T08:58:51;13.80;50.30
20057;DHT22;10189;49.546;7.906;2023-04-15T09:01:17;14.10;50.50
20057;DHT22;10189;49.546;7.906;2023-04-15T09:03:44;14.30;49.80
20057;DHT22;10189;49.546;7.906;2023-04-15T09:06:13;14.10;52.60
20057;DHT22;10189;49.546;7.906;2023-04-15T09:08:41;14.20;54.20
20057;DHT22;10189;49.546;7.906;2023-04-15T09:11:07;14.00;52.00
20057;DHT22;10189;49.546;7.906;2023-04-15T09:13:32;13.70;52.40
20057;DHT22;10189;49.546;7.906;2023-04-15T09:16:01;13.30;55.20
20057;DHT22;10189;49.546;7.906;2023-04-15T09:18:33;13.10;56.90
20057;DHT22;10189;49.546;7.906;2023-04-15T09:21:05;13.10;57.90
20057;DHT22;10189;49.546;7.906;2023-04-15T09:23:40;13.10;57.70
20057;DHT22;10189;49.546;7.906;2023-04-15T09:26:18;13.20;57.40
20057;DHT22;10189;49.546;7.906;2023-04-15T09:28:44;13.20;56.20
20057;DHT22;10189;49.546;7.906;2023-04-15T09:31:10;13.10;58.60
20057;DHT22;10189;49.546;7.906;2023-04-15T09:33:53;13.00;59.60
20057;DHT22;10189;49.546;7.906;2023-04-15T09:36:22;12.90;61.40
20057;DHT22;10189;49.546;7.906;2023-04-15T09:38:59;13.00;61.00
20057;DHT22;10189;49.546;7.906;2023-04-15T09:41:26;12.90;61.10
20057;DHT22;10189;49.546;7.906;2023-04-15T09:43:53;12.80;60.50
20057;DHT22;10189;49.546;7.906;2023-04-15T09:46:19;12.80;60.50
20057;DHT22;10189;49.546;7.906;2023-04-15T09:48:45;13.00;59.90
20057;DHT22;10189;49.546;7.906;2023-04-15T09:51:11;12.90;58.60
20057;DHT22;10189;49.546;7.906;2023-04-15T09:53:38;12.90;57.00
20057;DHT22;10189;49.546;7.906;2023-04-15T09:56:07;13.00;57.40
20057;DHT22;10189;49.546;7.906;2023-04-15T09:58:35;13.00;55.40
20057;DHT22;10189;49.546;7.906;2023-04-15T10:01:04;13.20;57.10
20057;DHT22;10189;49.546;7.906;2023-04-15T10:03:33;13.10;57.00
20057;DHT22;10189;49.546;7.906;2023-04-15T10:06:03;13.30;55.80
20057;DHT22;10189;49.546;7.906;2023-04-15T10:08:32;13.50;54.10
20057;DHT22;10189;49.546;7.906;2023-04-15T10:11:02;13.50;52.10
20057;DHT22;10189;49.546;7.906;2023-04-15T10:13:30;13.80;54.40
20057;DHT22;10189;49.546;7.906;2023-04-15T10:16:15;14.00;52.10
20057;DHT22;10189;49.546;7.906;2023-04-15T10:18:46;14.10;49.20
20057;DHT22;10189;49.546;7.906;2023-04-15T10:21:19;14.30;51.60
20057;DHT22;10189;49.546;7.906;2023-04-15T10:23:50;14.30;47.20
20057;DHT22;10189;49.546;7.906;2023-04-15T10:26:17;14.30;49.00
20057;DHT22;10189;49.546;7.906;2023-04-15T10:28:44;14.60;50.60
20057;DHT22;10189;49.546;7.906;2023-04-15T10:31:14;14.60;49.30
20057;DHT22;10189;49.546;7.906;2023-04-15T10:33:48;14.90;50.50
20057;DHT22;10189;49.546;7.906;2023-04-15T10:36:15;15.10;45.70
20057;DHT22;10189;49.546;7.906;2023-04-15T10:38:44;15.00;44.90
20057;DHT22;10189;49.546;7.906;2023-04-15T10:41:19;14.70;44.90
20057;DHT22;10189;49.546;7.906;2023-04-15T10:49:14;14.00;44.70
20057;DHT22;10189;49.546;7.906;2023-04-15T10:51:50;14.10;45.30
20057;DHT22;10189;49.546;7.906;2023-04-15T11:02:52;13.90;47.60
20057;DHT22;10189;49.546;7.906;2023-04-15T11:05:20;14.30;45.90
20057;DHT22;10189;49.546;7.906;2023-04-15T11:07:55;14.60;45.40
20057;DHT22;10189;49.546;7.906;2023-04-15T11:13:36;14.30;45.80
20057;DHT22;10189;49.546;7.906;2023-04-15T11:15:42;14.10;46.40
20057;DHT22;10189;49.546;7.906;2023-04-15T11:18:11;14.00;47.20
20057;DHT22;10189;49.546;7.906;2023-04-15T11:20:42;14.20;44.70
20057;DHT22;10189;49.546;7.906;2023-04-15T11:26:06;14.10;42.30
20057;DHT22;10189;49.546;7.906;2023-04-15T11:28:42;14.30;45.50
20057;DHT22;10189;49.546;7.906;2023-04-15T11:31:13;14.30;43.20
20057;DHT22;10189;49.546;7.906;2023-04-15T11:36:12;14.90;41.50
20057;DHT22;10189;49.546;7.906;2023-04-15T11:38:41;15.00;41.00
20057;DHT22;10189;49.546;7.906;2023-04-15T11:41:08;15.00;40.30
20057;DHT22;10189;49.546;7.906;2023-04-15T11:43:34;15.10;41.00
20057;DHT22;10189;49.546;7.906;2023-04-15T11:46:01;14.80;40.30
20057;DHT22;10189;49.546;7.906;2023-04-15T11:48:30;14.50;42.80
20057;DHT22;10189;49.546;7.906;2023-04-15T11:51:03;14.70;43.50
20057;DHT22;10189;49.546;7.906;2023-04-15T11:53:42;14.70;41.20
20057;DHT22;10189;49.546;7.906;2023-04-15T11:56:17;14.40;42.50
20057;DHT22;10189;49.546;7.906;2023-04-15T11:58:50;14.20;42.90
20057;DHT22;10189;49.546;7.906;2023-04-15T12:01:17;14.10;41.00
20057;DHT22;10189;49.546;7.906;2023-04-15T12:03:47;14.40;42.50
20057;DHT22;10189;49.546;7.906;2023-04-15T12:06:17;14.70;39.80
20057;DHT22;10189;49.546;7.906;2023-04-15T12:09:07;14.90;41.30
20057;DHT22;10189;49.546;7.906;2023-04-15T12:11:51;14.60;41.80
20057;DHT22;10189;49.546;7.906;2023-04-15T12:16:51;14.90;41.40
20057;DHT22;10189;49.546;7.906;2023-04-15T12:19:27;15.00;40.80
20057;DHT22;10189;49.546;7.906;2023-04-15T12:22:08;15.10;40.40
20057;DHT22;10189;49.546;7.906;2023-04-15T12:24:36;15.00;40.50
20057;DHT22;10189;49.546;7.906;2023-04-15T12:27:05;15.00;41.00
20057;DHT22;10189;49.546;7.906;2023-04-15T12:29:34;14.90;40.90
20057;DHT22;10189;49.546;7.906;2023-04-15T12:37:06;14.80;42.50
20057;DHT22;10189;49.546;7.906;2023-04-15T12:39:38;14.70;40.60
20057;DHT22;10189;49.546;7.906;2023-04-15T12:42:06;14.60;41.10
20057;DHT22;10189;49.546;7.906;2023-04-15T12:44:34;14.60;40.40
20057;DHT22;10189;49.546;7.906;2023-04-15T12:47:01;14.70;39.40
20057;DHT22;10189;49.546;7.906;2023-04-15T12:49:28;14.60;37.00
20057;DHT22;10189;49.546;7.906;2023-04-15T12:51:56;14.50;35.60
20057;DHT22;10189;49.546;7.906;2023-04-15T12:54:24;14.60;33.60
20057;DHT22;10189;49.546;7.906;2023-04-15T12:56:52;14.60;36.50
20057;DHT22;10189;49.546;7.906;2023-04-15T12:59:18;14.70;34.30
20057;DHT22;10189;49.546;7.906;2023-04-15T13:01:46;14.90;34.90
20057;DHT22;10189;49.546;7.906;2023-04-15T13:04:14;14.90;35.70
20057;DHT22;10189;49.546;7.906;2023-04-15T13:06:40;14.90;35.80
20057;DHT22;10189;49.546;7.906;2023-04-15T13:09:06;14.70;36.20
20057;DHT22;10189;49.546;7.906;2023-04-15T13:11:32;14.10;36.40
20057;DHT22;10189;49.546;7.906;2023-04-15T13:14:03;13.90;39.00
20057;DHT22;10189;49.546;7.906;2023-04-15T13:16:31;13.90;39.30
20057;DHT22;10189;49.546;7.906;2023-04-15T13:18:59;13.70;38.00
20057;DHT22;10189;49.546;7.906;2023-04-15T13:21:26;13.80;39.40
20057;DHT22;10189;49.546;7.906;2023-04-15T13:23:53;13.90;38.90
20057;DHT22;10189;49.546;7.906;2023-04-15T13:26:20;14.20;39.00
20057;DHT22;10189;49.546;7.906;2023-04-15T13:28:46;14.30;37.50
20057;DHT22;10189;49.546;7.906;2023-04-15T13:31:12;14.30;37.30
20057;DHT22;10189;49.546;7.906;2023-04-15T13:33:38;14.30;38.50
20057;DHT22;10189;49.546;7.906;2023-04-15T13:36:04;14.20;38.80
20057;DHT22;10189;49.546;7.906;2023-04-15T13:38:30;14.10;39.10
20057;DHT22;10189;49.546;7.906;2023-04-15T13:40:56;14.00;39.40
20057;DHT22;10189;49.546;7.906;2023-04-15T13:43:22;13.80;40.60
20057;DHT22;10189;49.546;7.906;2023-04-15T13:45:48;13.70;40.90
20057;DHT22;10189;49.546;7.906;2023-04-15T13:48:14;13.60;41.30
20057;DHT22;10189;49.546;7.906;2023-04-15T13:50:40;13.30;41.60
20057;DHT22;10189;49.546;7.906;2023-04-15T13:53:10;13.30;42.20
20057;DHT22;10189;49.546;7.906;2023-04-15T13:55:36;13.20;43.40
20057;DHT22;10189;49.546;7.906;2023-04-15T13:58:07;12.90;44.00
20057;DHT22;10189;49.546;7.906;2023-04-15T14:00:33;12.70;43.80
20057;DHT22;10189;49.546;7.906;2023-04-15T14:02:59;12.80;44.20
20057;DHT22;10189;49.546;7.906;2023-04-15T14:05:24;12.70;44.50
20057;DHT22;10189;49.546;7.906;2023-04-15T14:07:50;12.70;44.20
20057;DHT22;10189;49.546;7.906;2023-04-15T14:10:16;12.80;44.20
20057;DHT22;10189;49.546;7.906;2023-04-15T14:12:42;12.90;44.40
20057;DHT22;10189;49.546;7.906;2023-04-15T14:15:08;12.90;44.30
20057;DHT22;10189;49.546;7.906;2023-04-15T14:17:35;12.70;44.40
20057;DHT22;10189;49.546;7.906;2023-04-15T14:20:01;12.70;44.70
20057;DHT22;10189;49.546;7.906;2023-04-15T14:22:27;12.80;45.90
20057;DHT22;10189;49.546;7.906;2023-04-15T14:24:52;12.80;46.10
20057;DHT22;10189;49.546;7.906;2023-04-15T14:27:20;12.80;46.20
20057;DHT22;10189;49.546;7.906;2023-04-15T14:29:46;12.60;46.90
20057;DHT22;10189;49.546;7.906;2023-04-15T14:32:12;12.50;48.10
20057;DHT22;10189;49.546;7.906;2023-04-15T14:34:38;12.40;49.90
20057;DHT22;10189;49.546;7.906;2023-04-15T14:37:04;12.40;50.40
20057;DHT22;10189;49.546;7.906;2023-04-15T14:39:30;12.20;49.40
20057;DHT22;10189;49.546;7.906;2023-04-15T14:41:57;12.30;51.00
20057;DHT22;10189;49.546;7.906;2023-04-15T14:44:23;12.40;50.40
20057;DHT22;10189;49.546;7.906;2023-04-15T14:46:50;12.60;51.10
20057;DHT22;10189;49.546;7.906;2023-04-15T14:49:16;12.70;50.50
20057;DHT22;10189;49.546;7.906;2023-04-15T14:51:42;12.70;50.50
20057;DHT22;10189;49.546;7.906;2023-04-15T14:54:08;12.50;51.40
20057;DHT22;10189;49.546;7.906;2023-04-15T14:56:34;12.20;53.00
20057;DHT22;10189;49.546;7.906;2023-04-15T14:59:00;12.00;54.90
20057;DHT22;10189;49.546;7.906;2023-04-15T15:01:26;11.60;57.10
20057;DHT22;10189;49.546;7.906;2023-04-15T15:03:52;11.60;57.60
20057;DHT22;10189;49.546;7.906;2023-04-15T15:06:20;11.60;57.60
20057;DHT22;10189;49.546;7.906;2023-04-15T15:08:48;11.70;57.90
20057;DHT22;10189;49.546;7.906;2023-04-15T15:11:15;11.60;58.40
20057;DHT22;10189;49.546;7.906;2023-04-15T15:13:41;11.50;60.50
20057;DHT22;10189;49.546;7.906;2023-04-15T15:16:07;11.30;62.90
20057;DHT22;10189;49.546;7.906;2023-04-15T15:18:34;11.10;65.20
20057;DHT22;10189;49.546;7.906;2023-04-15T15:21:00;10.80;65.20
20057;DHT22;10189;49.546;7.906;2023-04-15T15:23:26;10.50;68.00
20057;DHT22;10189;49.546;7.906;2023-04-15T15:25:52;10.10;70.50
20057;DHT22;10189;49.546;7.906;2023-04-15T15:28:19;9.80;73.20
20057;DHT22;10189;49.546;7.906;2023-04-15T15:30:46;9.50;75.30
20057;DHT22;10189;49.546;7.906;2023-04-15T15:33:12;9.40;77.00
20057;DHT22;10189;49.546;7.906;2023-04-15T15:35:38;9.30;79.40
20057;DHT22;10189;49.546;7.906;2023-04-15T15:38:04;9.20;79.90
20057;DHT22;10189;49.546;7.906;2023-04-15T15:40:30;9.00;81.40
20057;DHT22;10189;49.546;7.906;2023-04-15T15:42:56;9.00;81.50
20057;DHT22;10189;49.546;7.906;2023-04-15T15:45:22;9.00;82.30
20057;DHT22;10189;49.546;7.906;2023-04-15T15:47:48;8.90;82.00
20057;DHT22;10189;49.546;7.906;2023-04-15T15:50:14;8.80;83.70
20057;DHT22;10189;49.546;7.906;2023-04-15T15:52:41;8.70;84.10
20057;DHT22;10189;49.546;7.906;2023-04-15T15:55:07;8.70;85.00
20057;DHT22;10189;49.546;7.906;2023-04-15T15:57:33;8.60;84.80
20057;DHT22;10189;49.546;7.906;2023-04-15T15:59:59;8.50;86.30
20057;DHT22;10189;49.546;7.906;2023-04-15T16:02:25;8.40;88.00
20057;DHT22;10189;49.546;7.906;2023-04-15T16:04:52;8.30;87.40